Terminal Aerodrome Forecast
Issued by NWS Shreveport, LA

Home | Current Version | Previous Version | Text Only | Print | Product List | Glossary On
Versions: 1 2 3 4 5 6 7 8 9 10 11 12 13 14 15 16 17 18 19 20
000
FTUS44 KSHV 010000 CCA
TAFELD
TAF COR
KELD 010000Z 0100/0124 VRB03KT P6SM FEW050 BKN150 OVC250
      TEMPO 0109/0113 4SM BR
     FM011400 14004KT P6SM BKN180 BKN250
     FM011600 15006KT P6SM SCT020 BKN180 BKN250
     FM011800 15006KT P6SM SCT040 BKN180 BKN250=

USA.gov is the U.S. government's official web portal to all federal, state and local government web resources and services.